sensor_id;sensor_type;location;lat;lon;timestamp;P1;P2;P0
65383;PMS5003;51986;52.788;41.368;2022-12-18T00:01:39;11.50;10.00;6.75
65383;PMS5003;51986;52.788;41.368;2022-12-18T00:04:07;14.00;13.75;11.25
65383;PMS5003;51986;52.788;41.368;2022-12-18T00:06:42;11.00;11.00;8.00
65383;PMS5003;51986;52.788;41.368;2022-12-18T00:09:09;6.00;5.00;2.00
65383;PMS5003;51986;52.788;41.368;2022-12-18T00:11:37;12.00;9.25;8.00
65383;PMS5003;51986;52.788;41.368;2022-12-18T00:14:03;16.50;16.00;13.00
65383;PMS5003;51986;52.788;41.368;2022-12-18T00:16:31;14.00;14.00;10.00
65383;PMS5003;51986;52.788;41.368;2022-12-18T00:18:58;12.00;12.00;7.50
65383;PMS5003;51986;52.788;41.368;2022-12-18T00:21:26;11.50;10.00;6.00
65383;PMS5003;51986;52.788;41.368;2022-12-18T00:23:55;9.50;6.75;4.00
65383;PMS5003;51986;52.788;41.368;2022-12-18T00:26:24;14.25;13.75;10.50
65383;PMS5003;51986;52.788;41.368;2022-12-18T00:29:10;15.75;15.25;11.50
65383;PMS5003;51986;52.788;41.368;2022-12-18T00:31:38;10.00;10.00;6.00
65383;PMS5003;51986;52.788;41.368;2022-12-18T00:34:06;11.00;10.00;6.00
65383;PMS5003;51986;52.788;41.368;2022-12-18T00:36:38;12.00;10.00;6.00
65383;PMS5003;51986;52.788;41.368;2022-12-18T00:39:06;11.25;10.00;6.00
65383;PMS5003;51986;52.788;41.368;2022-12-18T00:41:33;17.25;14.50;12.00
65383;PMS5003;51986;52.788;41.368;2022-12-18T00:44:00;17.00;14.75;11.00
65383;PMS5003;51986;52.788;41.368;2022-12-18T00:46:27;16.75;14.75;11.50
65383;PMS5003;51986;52.788;41.368;2022-12-18T00:48:54;12.00;12.00;8.00
65383;PMS5003;51986;52.788;41.368;2022-12-18T00:51:21;16.50;15.25;13.00
65383;PMS5003;51986;52.788;41.368;2022-12-18T00:53:48;15.50;13.75;11.75
65383;PMS5003;51986;52.788;41.368;2022-12-18T00:56:16;18.75;18.50;14.50
65383;PMS5003;51986;52.788;41.368;2022-12-18T00:58:42;19.00;16.50;13.00
65383;PMS5003;51986;52.788;41.368;2022-12-18T01:01:09;14.50;12.00;12.00
65383;PMS5003;51986;52.788;41.368;2022-12-18T01:03:36;14.00;10.50;8.00
65383;PMS5003;51986;52.788;41.368;2022-12-18T01:06:08;14.00;12.00;7.00
65383;PMS5003;51986;52.788;41.368;2022-12-18T01:08:36;11.25;10.00;4.00
65383;PMS5003;51986;52.788;41.368;2022-12-18T01:11:14;9.00;7.00;4.00
65383;PMS5003;51986;52.788;41.368;2022-12-18T01:13:43;12.00;10.75;6.00
65383;PMS5003;51986;52.788;41.368;2022-12-18T01:16:13;10.00;9.00;3.00
65383;PMS5003;51986;52.788;41.368;2022-12-18T01:18:41;15.25;12.75;8.75
65383;PMS5003;51986;52.788;41.368;2022-12-18T01:21:09;12.75;12.00;7.75
65383;PMS5003;51986;52.788;41.368;2022-12-18T01:23:39;12.75;12.00;8.00
65383;PMS5003;51986;52.788;41.368;2022-12-18T01:26:07;14.00;12.00;7.00
65383;PMS5003;51986;52.788;41.368;2022-12-18T01:28:35;14.00;13.00;7.00
65383;PMS5003;51986;52.788;41.368;2022-12-18T01:33:49;19.75;19.75;14.75
65383;PMS5003;51986;52.788;41.368;2022-12-18T01:36:19;17.00;17.00;13.00
65383;PMS5003;51986;52.788;41.368;2022-12-18T01:38:49;21.25;20.25;15.50
65383;PMS5003;51986;52.788;41.368;2022-12-18T01:41:18;26.75;22.00;17.00
65383;PMS5003;51986;52.788;41.368;2022-12-18T01:43:54;18.75;14.50;12.00
65383;PMS5003;51986;52.788;41.368;2022-12-18T01:46:23;12.75;12.00;7.75
65383;PMS5003;51986;52.788;41.368;2022-12-18T01:48:58;12.00;9.50;5.00
65383;PMS5003;51986;52.788;41.368;2022-12-18T01:51:27;10.00;8.25;4.00
65383;PMS5003;51986;52.788;41.368;2022-12-18T01:53:56;18.00;15.25;11.25
65383;PMS5003;51986;52.788;41.368;2022-12-18T01:56:25;16.00;15.00;12.50
65383;PMS5003;51986;52.788;41.368;2022-12-18T01:58:54;14.00;13.75;11.00
65383;PMS5003;51986;52.788;41.368;2022-12-18T02:01:26;12.00;12.00;9.75
65383;PMS5003;51986;52.788;41.368;2022-12-18T02:06:50;17.75;16.25;12.50
65383;PMS5003;51986;52.788;41.368;2022-12-18T02:09:33;22.00;20.00;15.00
65383;PMS5003;51986;52.788;41.368;2022-12-18T02:17:52;16.00;14.25;10.25
65383;PMS5003;51986;52.788;41.368;2022-12-18T02:20:31;20.50;17.25;14.00
65383;PMS5003;51986;52.788;41.368;2022-12-18T02:28:35;14.00;13.50;10.00
65383;PMS5003;51986;52.788;41.368;2022-12-18T02:31:11;18.75;17.00;13.50
65383;PMS5003;51986;52.788;41.368;2022-12-18T02:33:40;17.25;14.00;12.00
65383;PMS5003;51986;52.788;41.368;2022-12-18T02:36:11;17.75;15.00;13.00
65383;PMS5003;51986;52.788;41.368;2022-12-18T02:38:41;14.50;12.75;12.00
65383;PMS5003;51986;52.788;41.368;2022-12-18T02:41:13;15.00;12.75;10.00
65383;PMS5003;51986;52.788;41.368;2022-12-18T02:43:47;12.00;10.50;5.00
65383;PMS5003;51986;52.788;41.368;2022-12-18T02:46:23;19.00;17.50;13.00
65383;PMS5003;51986;52.788;41.368;2022-12-18T02:54:29;13.50;10.75;7.00
65383;PMS5003;51986;52.788;41.368;2022-12-18T02:57:10;18.75;17.50;13.25
65383;PMS5003;51986;52.788;41.368;2022-12-18T02:59:56;19.00;19.00;15.00
65383;PMS5003;51986;52.788;41.368;2022-12-18T03:02:37;20.50;20.00;15.00
65383;PMS5003;51986;52.788;41.368;2022-12-18T03:05:13;15.00;15.00;12.00
65383;PMS5003;51986;52.788;41.368;2022-12-18T03:07:56;18.00;17.00;12.75
65383;PMS5003;51986;52.788;41.368;2022-12-18T03:10:31;17.75;15.75;12.75
65383;PMS5003;51986;52.788;41.368;2022-12-18T03:13:03;15.00;14.00;12.00
65383;PMS5003;51986;52.788;41.368;2022-12-18T03:15:37;21.50;19.50;14.50
65383;PMS5003;51986;52.788;41.368;2022-12-18T03:18:19;24.25;21.75;16.00
65383;PMS5003;51986;52.788;41.368;2022-12-18T03:20:51;20.00;19.00;13.25
65383;PMS5003;51986;52.788;41.368;2022-12-18T03:23:23;18.00;17.00;13.00
65383;PMS5003;51986;52.788;41.368;2022-12-18T03:25:55;12.00;11.00;5.75
65383;PMS5003;51986;52.788;41.368;2022-12-18T03:28:37;14.00;12.50;7.50
65383;PMS5003;51986;52.788;41.368;2022-12-18T03:31:08;20.50;16.50;12.00
65383;PMS5003;51986;52.788;41.368;2022-12-18T03:33:38;18.00;16.50;13.00
65383;PMS5003;51986;52.788;41.368;2022-12-18T03:36:08;23.25;21.00;16.00
65383;PMS5003;51986;52.788;41.368;2022-12-18T03:38:35;18.75;17.00;13.00
65383;PMS5003;51986;52.788;41.368;2022-12-18T03:44:29;16.75;16.75;13.25
65383;PMS5003;51986;52.788;41.368;2022-12-18T03:47:08;16.00;14.00;13.00
65383;PMS5003;51986;52.788;41.368;2022-12-18T03:50:07;23.75;20.75;16.25
65383;PMS5003;51986;52.788;41.368;2022-12-18T03:55:14;27.50;23.00;18.00
65383;PMS5003;51986;52.788;41.368;2022-12-18T03:57:45;20.00;17.75;13.75
65383;PMS5003;51986;52.788;41.368;2022-12-18T04:00:15;17.00;15.00;11.00
65383;PMS5003;51986;52.788;41.368;2022-12-18T04:02:59;15.00;14.00;10.00
65383;PMS5003;51986;52.788;41.368;2022-12-18T04:05:34;16.00;14.00;10.00
65383;PMS5003;51986;52.788;41.368;2022-12-18T04:08:05;17.00;15.00;10.00
65383;PMS5003;51986;52.788;41.368;2022-12-18T04:10:36;24.50;21.00;15.00
65383;PMS5003;51986;52.788;41.368;2022-12-18T04:13:03;20.00;17.50;12.50
65383;PMS5003;51986;52.788;41.368;2022-12-18T04:15:31;23.50;21.00;15.00
65383;PMS5003;51986;52.788;41.368;2022-12-18T04:18:02;23.00;20.25;15.00
65383;PMS5003;51986;52.788;41.368;2022-12-18T04:20:36;20.00;19.00;14.00
65383;PMS5003;51986;52.788;41.368;2022-12-18T04:23:04;15.00;13.50;12.00
65383;PMS5003;51986;52.788;41.368;2022-12-18T04:25:31;18.75;17.50;13.25
65383;PMS5003;51986;52.788;41.368;2022-12-18T04:28:08;17.50;16.00;13.00
65383;PMS5003;51986;52.788;41.368;2022-12-18T04:30:37;15.50;15.25;12.00
65383;PMS5003;51986;52.788;41.368;2022-12-18T04:33:08;15.00;15.00;10.00
65383;PMS5003;51986;52.788;41.368;2022-12-18T04:35:39;24.75;22.00;15.00
65383;PMS5003;51986;52.788;41.368;2022-12-18T04:38:07;29.50;23.00;18.00
65383;PMS5003;51986;52.788;41.368;2022-12-18T04:40:35;18.75;17.25;13.00
65383;PMS5003;51986;52.788;41.368;2022-12-18T04:43:10;19.50;17.50;13.50
65383;PMS5003;51986;52.788;41.368;2022-12-18T04:45:37;23.25;21.00;16.00
65383;PMS5003;51986;52.788;41.368;2022-12-18T04:48:06;20.00;17.25;12.75
65383;PMS5003;51986;52.788;41.368;2022-12-18T04:50:33;21.25;19.25;15.00
65383;PMS5003;51986;52.788;41.368;2022-12-18T04:53:00;16.75;15.50;12.00
65383;PMS5003;51986;52.788;41.368;2022-12-18T04:55:27;20.75;20.00;15.25
65383;PMS5003;51986;52.788;41.368;2022-12-18T04:57:54;18.50;16.50;13.00
65383;PMS5003;51986;52.788;41.368;2022-12-18T05:00:21;22.75;21.50;16.00
65383;PMS5003;51986;52.788;41.368;2022-12-18T05:02:49;18.25;17.75;12.25
65383;PMS5003;51986;52.788;41.368;2022-12-18T05:05:16;22.75;21.25;16.00
65383;PMS5003;51986;52.788;41.368;2022-12-18T05:07:43;22.25;21.00;16.50
65383;PMS5003;51986;52.788;41.368;2022-12-18T05:10:11;22.00;21.00;16.00
65383;PMS5003;51986;52.788;41.368;2022-12-18T05:12:38;24.00;21.00;17.00
65383;PMS5003;51986;52.788;41.368;2022-12-18T05:15:05;16.00;14.50;10.25
65383;PMS5003;51986;52.788;41.368;2022-12-18T05:17:32;15.00;14.50;9.25
65383;PMS5003;51986;52.788;41.368;2022-12-18T05:19:59;18.00;17.00;12.75
65383;PMS5003;51986;52.788;41.368;2022-12-18T05:22:26;25.00;21.25;15.00
65383;PMS5003;51986;52.788;41.368;2022-12-18T05:24:53;25.00;21.25;15.00
65383;PMS5003;51986;52.788;41.368;2022-12-18T05:27:20;25.25;22.50;17.00
65383;PMS5003;51986;52.788;41.368;2022-12-18T05:29:47;22.00;21.00;17.00
65383;PMS5003;51986;52.788;41.368;2022-12-18T05:32:14;15.50;15.00;13.00
65383;PMS5003;51986;52.788;41.368;2022-12-18T05:34:41;17.50;16.50;13.00
65383;PMS5003;51986;52.788;41.368;2022-12-18T05:37:07;16.25;15.00;12.00
65383;PMS5003;51986;52.788;41.368;2022-12-18T05:39:34;15.50;15.50;12.50
65383;PMS5003;51986;52.788;41.368;2022-12-18T05:42:01;12.50;12.50;9.25
65383;PMS5003;51986;52.788;41.368;2022-12-18T05:44:28;12.00;10.00;6.00
65383;PMS5003;51986;52.788;41.368;2022-12-18T05:46:55;15.00;14.50;11.75
65383;PMS5003;51986;52.788;41.368;2022-12-18T05:49:22;18.50;17.50;14.50
65383;PMS5003;51986;52.788;41.368;2022-12-18T05:51:49;17.00;17.00;13.75
65383;PMS5003;51986;52.788;41.368;2022-12-18T05:54:16;18.50;17.00;15.00
65383;PMS5003;51986;52.788;41.368;2022-12-18T05:56:43;16.00;13.50;13.00
65383;PMS5003;51986;52.788;41.368;2022-12-18T05:59:14;17.75;17.00;15.00
65383;PMS5003;51986;52.788;41.368;2022-12-18T06:01:41;17.00;17.00;14.00
65383;PMS5003;51986;52.788;41.368;2022-12-18T06:04:08;18.00;17.00;15.00
65383;PMS5003;51986;52.788;41.368;2022-12-18T06:06:35;15.25;15.25;13.00
65383;PMS5003;51986;52.788;41.368;2022-12-18T06:09:03;12.00;12.00;10.00
65383;PMS5003;51986;52.788;41.368;2022-12-18T06:11:30;9.00;8.00;5.25
65383;PMS5003;51986;52.788;41.368;2022-12-18T06:13:57;8.00;8.00;6.00
65383;PMS5003;51986;52.788;41.368;2022-12-18T06:16:26;12.00;10.75;8.75
65383;PMS5003;51986;52.788;41.368;2022-12-18T06:18:58;19.00;18.00;15.00
65383;PMS5003;51986;52.788;41.368;2022-12-18T06:21:27;13.00;13.00;11.00
65383;PMS5003;51986;52.788;41.368;2022-12-18T06:23:56;14.75;14.75;12.50
65383;PMS5003;51986;52.788;41.368;2022-12-18T06:26:24;19.00;19.00;16.00
65383;PMS5003;51986;52.788;41.368;2022-12-18T06:28:54;13.00;12.25;12.00
65383;PMS5003;51986;52.788;41.368;2022-12-18T06:31:21;13.50;12.50;11.75
65383;PMS5003;51986;52.788;41.368;2022-12-18T06:33:48;17.75;17.50;15.50
65383;PMS5003;51986;52.788;41.368;2022-12-18T06:36:15;14.25;14.25;13.00
65383;PMS5003;51986;52.788;41.368;2022-12-18T06:38:43;9.00;9.00;7.25
65383;PMS5003;51986;52.788;41.368;2022-12-18T06:41:11;11.75;11.75;10.00
65383;PMS5003;51986;52.788;41.368;2022-12-18T06:43:43;9.75;9.00;7.75
65383;PMS5003;51986;52.788;41.368;2022-12-18T06:46:11;4.00;4.00;3.50
65383;PMS5003;51986;52.788;41.368;2022-12-18T06:48:38;10.25;10.25;9.75
65383;PMS5003;51986;52.788;41.368;2022-12-18T06:51:05;12.00;12.00;10.75
65383;PMS5003;51986;52.788;41.368;2022-12-18T06:53:33;11.00;11.00;9.00
65383;PMS5003;51986;52.788;41.368;2022-12-18T06:56:03;10.00;10.00;9.25
65383;PMS5003;51986;52.788;41.368;2022-12-18T06:58:36;5.50;5.50;4.50
65383;PMS5003;51986;52.788;41.368;2022-12-18T07:01:04;12.75;12.75;12.00
65383;PMS5003;51986;52.788;41.368;2022-12-18T07:03:34;4.75;4.75;4.50
65383;PMS5003;51986;52.788;41.368;2022-12-18T07:06:01;7.00;7.00;5.00
65383;PMS5003;51986;52.788;41.368;2022-12-18T07:08:29;6.00;6.00;6.00
65383;PMS5003;51986;52.788;41.368;2022-12-18T07:10:57;10.00;10.00;9.50
65383;PMS5003;51986;52.788;41.368;2022-12-18T07:13:24;17.00;17.00;15.25
65383;PMS5003;51986;52.788;41.368;2022-12-18T07:15:51;9.00;9.00;8.25
65383;PMS5003;51986;52.788;41.368;2022-12-18T07:18:18;3.75;3.00;2.50
65383;PMS5003;51986;52.788;41.368;2022-12-18T07:20:45;10.00;9.00;8.25
65383;PMS5003;51986;52.788;41.368;2022-12-18T07:23:13;6.00;6.00;5.00
65383;PMS5003;51986;52.788;41.368;2022-12-18T07:25:40;10.00;9.50;8.50
65383;PMS5003;51986;52.788;41.368;2022-12-18T07:28:07;14.50;14.50;13.50
65383;PMS5003;51986;52.788;41.368;2022-12-18T07:30:41;12.00;12.00;11.75
65383;PMS5003;51986;52.788;41.368;2022-12-18T07:33:07;5.00;5.00;4.00
65383;PMS5003;51986;52.788;41.368;2022-12-18T07:35:34;9.00;9.00;7.25
65383;PMS5003;51986;52.788;41.368;2022-12-18T07:38:01;9.00;9.00;7.25
65383;PMS5003;51986;52.788;41.368;2022-12-18T07:40:28;13.25;13.25;12.25
65383;PMS5003;51986;52.788;41.368;2022-12-18T07:42:55;8.50;8.50;6.75
65383;PMS5003;51986;52.788;41.368;2022-12-18T07:45:22;6.00;5.00;4.00
65383;PMS5003;51986;52.788;41.368;2022-12-18T07:47:49;4.00;4.00;3.00
65383;PMS5003;51986;52.788;41.368;2022-12-18T07:50:16;4.00;4.00;3.00
65383;PMS5003;51986;52.788;41.368;2022-12-18T07:52:43;11.50;11.50;10.25
65383;PMS5003;51986;52.788;41.368;2022-12-18T07:55:10;8.75;8.75;6.25
65383;PMS5003;51986;52.788;41.368;2022-12-18T07:57:37;1.00;1.00;1.00
65383;PMS5003;51986;52.788;41.368;2022-12-18T08:00:24;7.25;7.25;6.75
65383;PMS5003;51986;52.788;41.368;2022-12-18T08:02:50;12.00;12.00;10.75
65383;PMS5003;51986;52.788;41.368;2022-12-18T08:05:18;7.50;7.50;5.25
65383;PMS5003;51986;52.788;41.368;2022-12-18T08:07:44;4.00;4.00;4.00
65383;PMS5003;51986;52.788;41.368;2022-12-18T08:10:12;4.00;4.00;4.00
65383;PMS5003;51986;52.788;41.368;2022-12-18T08:12:39;10.00;9.75;9.75
65383;PMS5003;51986;52.788;41.368;2022-12-18T08:15:06;12.75;12.75;12.75
65383;PMS5003;51986;52.788;41.368;2022-12-18T08:17:35;7.00;7.00;5.50
65383;PMS5003;51986;52.788;41.368;2022-12-18T08:20:02;4.00;4.00;3.00
65383;PMS5003;51986;52.788;41.368;2022-12-18T08:22:29;3.00;3.00;3.00
65383;PMS5003;51986;52.788;41.368;2022-12-18T08:24:56;9.25;8.75;8.75
65383;PMS5003;51986;52.788;41.368;2022-12-18T08:27:23;14.00;13.00;13.00
65383;PMS5003;51986;52.788;41.368;2022-12-18T08:29:58;6.25;5.00;4.50
65383;PMS5003;51986;52.788;41.368;2022-12-18T08:32:25;1.75;1.50;1.50
65383;PMS5003;51986;52.788;41.368;2022-12-18T08:34:53;5.75;5.00;4.00
65383;PMS5003;51986;52.788;41.368;2022-12-18T08:37:20;8.25;8.25;7.25
65383;PMS5003;51986;52.788;41.368;2022-12-18T08:39:47;4.00;4.00;4.00
65383;PMS5003;51986;52.788;41.368;2022-12-18T08:42:14;8.00;8.00;7.50
65383;PMS5003;51986;52.788;41.368;2022-12-18T08:44:41;4.75;4.75;4.00
65383;PMS5003;51986;52.788;41.368;2022-12-18T08:47:08;2.00;2.00;2.00
65383;PMS5003;51986;52.788;41.368;2022-12-18T08:49:35;10.25;10.25;9.50
65383;PMS5003;51986;52.788;41.368;2022-12-18T08:52:02;12.00;12.00;10.00
65383;PMS5003;51986;52.788;41.368;2022-12-18T08:54:30;15.00;15.00;13.00
65383;PMS5003;51986;52.788;41.368;2022-12-18T08:56:56;14.75;14.75;13.25
65383;PMS5003;51986;52.788;41.368;2022-12-18T08:59:23;7.00;7.00;6.25
65383;PMS5003;51986;52.788;41.368;2022-12-18T09:01:53;4.00;4.00;3.00
65383;PMS5003;51986;52.788;41.368;2022-12-18T09:04:20;5.00;5.00;5.00
65383;PMS5003;51986;52.788;41.368;2022-12-18T09:06:47;4.00;4.00;3.00
65383;PMS5003;51986;52.788;41.368;2022-12-18T09:09:14;8.75;8.25;7.75
65383;PMS5003;51986;52.788;41.368;2022-12-18T09:11:41;12.00;11.25;11.00
65383;PMS5003;51986;52.788;41.368;2022-12-18T09:14:08;8.00;7.00;6.00
65383;PMS5003;51986;52.788;41.368;2022-12-18T09:16:36;9.50;7.50;6.75
65383;PMS5003;51986;52.788;41.368;2022-12-18T09:19:03;9.50;8.25;7.75
65383;PMS5003;51986;52.788;41.368;2022-12-18T09:21:32;12.00;12.00;10.00
65383;PMS5003;51986;52.788;41.368;2022-12-18T09:24:03;9.75;9.00;5.75
65383;PMS5003;51986;52.788;41.368;2022-12-18T09:26:34;6.00;4.00;3.50
65383;PMS5003;51986;52.788;41.368;2022-12-18T09:29:02;5.00;5.00;4.50
65383;PMS5003;51986;52.788;41.368;2022-12-18T09:31:29;5.50;5.00;5.00
65383;PMS5003;51986;52.788;41.368;2022-12-18T09:33:56;6.00;6.00;5.00
65383;PMS5003;51986;52.788;41.368;2022-12-18T09:36:23;4.00;4.00;3.00
65383;PMS5003;51986;52.788;41.368;2022-12-18T09:38:50;11.00;10.25;9.00
65383;PMS5003;51986;52.788;41.368;2022-12-18T09:41:20;6.50;5.25;3.75
65383;PMS5003;51986;52.788;41.368;2022-12-18T09:49:18;9.75;9.75;8.00
65383;PMS5003;51986;52.788;41.368;2022-12-18T09:54:21;9.25;9.25;9.25
65383;PMS5003;51986;52.788;41.368;2022-12-18T09:56:53;6.75;6.25;4.50
65383;PMS5003;51986;52.788;41.368;2022-12-18T09:59:24;9.25;9.25;9.00
65383;PMS5003;51986;52.788;41.368;2022-12-18T10:01:56;10.00;10.00;9.00
65383;PMS5003;51986;52.788;41.368;2022-12-18T10:04:24;6.25;6.00;6.00
65383;PMS5003;51986;52.788;41.368;2022-12-18T10:07:27;10.00;9.25;9.25
65383;PMS5003;51986;52.788;41.368;2022-12-18T10:10:09;11.00;11.00;10.50
65383;PMS5003;51986;52.788;41.368;2022-12-18T10:15:39;13.00;13.00;12.50
65383;PMS5003;51986;52.788;41.368;2022-12-18T10:20:49;6.75;6.75;6.25
65383;PMS5003;51986;52.788;41.368;2022-12-18T10:26:18;3.00;3.00;3.00
65383;PMS5003;51986;52.788;41.368;2022-12-18T10:28:46;3.75;3.00;3.00
65383;PMS5003;51986;52.788;41.368;2022-12-18T10:31:18;7.75;7.75;7.00
65383;PMS5003;51986;52.788;41.368;2022-12-18T10:33:50;10.00;10.00;9.00
65383;PMS5003;51986;52.788;41.368;2022-12-18T10:36:18;9.50;9.50;9.00
65383;PMS5003;51986;52.788;41.368;2022-12-18T10:38:45;3.75;3.75;3.75
65383;PMS5003;51986;52.788;41.368;2022-12-18T10:43:47;4.00;4.00;4.00
65383;PMS5003;51986;52.788;41.368;2022-12-18T10:46:15;7.50;7.50;7.50
65383;PMS5003;51986;52.788;41.368;2022-12-18T10:54:14;11.00;11.00;10.00
65383;PMS5003;51986;52.788;41.368;2022-12-18T10:56:44;10.00;10.00;10.00
65383;PMS5003;51986;52.788;41.368;2022-12-18T10:59:13;4.00;4.00;4.00
65383;PMS5003;51986;52.788;41.368;2022-12-18T11:01:57;4.00;3.00;2.00
65383;PMS5003;51986;52.788;41.368;2022-12-18T11:04:28;8.75;8.50;7.50
65383;PMS5003;51986;52.788;41.368;2022-12-18T11:06:59;2.50;2.50;2.00
65383;PMS5003;51986;52.788;41.368;2022-12-18T11:09:28;7.75;7.75;7.75
65383;PMS5003;51986;52.788;41.368;2022-12-18T11:12:04;8.00;8.00;7.75
65383;PMS5003;51986;52.788;41.368;2022-12-18T11:22:55;1.25;1.25;0.50
65383;PMS5003;51986;52.788;41.368;2022-12-18T11:25:25;6.00;6.00;4.75
65383;PMS5003;51986;52.788;41.368;2022-12-18T11:28:02;4.75;4.25;4.00
65383;PMS5003;51986;52.788;41.368;2022-12-18T11:30:50;1.25;1.25;1.00
65383;PMS5003;51986;52.788;41.368;2022-12-18T11:36:52;1.00;1.00;1.00
65383;PMS5003;51986;52.788;41.368;2022-12-18T11:42:04;1.00;1.00;0.00
65383;PMS5003;51986;52.788;41.368;2022-12-18T11:44:43;1.00;0.00;0.00
65383;PMS5003;51986;52.788;41.368;2022-12-18T11:47:28;5.50;4.50;4.50
65383;PMS5003;51986;52.788;41.368;2022-12-18T11:50:11;5.75;5.75;5.50
65383;PMS5003;51986;52.788;41.368;2022-12-18T11:52:47;4.00;4.00;2.00
65383;PMS5003;51986;52.788;41.368;2022-12-18T12:01:19;4.00;4.00;3.50
65383;PMS5003;51986;52.788;41.368;2022-12-18T12:03:51;9.00;9.00;8.25
65383;PMS5003;51986;52.788;41.368;2022-12-18T12:09:34;13.25;12.00;11.50
65383;PMS5003;51986;52.788;41.368;2022-12-18T12:12:26;12.00;10.00;10.00
65383;PMS5003;51986;52.788;41.368;2022-12-18T12:23:35;5.25;5.25;3.75
65383;PMS5003;51986;52.788;41.368;2022-12-18T12:35:18;2.00;2.00;1.00
65383;PMS5003;51986;52.788;41.368;2022-12-18T12:38:25;7.00;7.00;6.75
65383;PMS5003;51986;52.788;41.368;2022-12-18T12:40:59;7.00;7.00;5.00
65383;PMS5003;51986;52.788;41.368;2022-12-18T12:46:17;10.75;10.00;9.50
65383;PMS5003;51986;52.788;41.368;2022-12-18T12:48:50;7.00;6.00;4.50
65383;PMS5003;51986;52.788;41.368;2022-12-18T12:51:21;7.00;7.00;5.00
65383;PMS5003;51986;52.788;41.368;2022-12-18T12:53:53;9.00;9.00;9.00
65383;PMS5003;51986;52.788;41.368;2022-12-18T12:56:22;5.25;5.00;3.00
65383;PMS5003;51986;52.788;41.368;2022-12-18T12:59:18;3.00;3.00;1.00
65383;PMS5003;51986;52.788;41.368;2022-12-18T13:04:57;3.25;3.25;2.50
65383;PMS5003;51986;52.788;41.368;2022-12-18T13:07:54;1.00;1.00;0.00
65383;PMS5003;51986;52.788;41.368;2022-12-18T13:10:26;3.00;1.75;1.25
65383;PMS5003;51986;52.788;41.368;2022-12-18T13:15:30;4.25;3.50;2.00
65383;PMS5003;51986;52.788;41.368;2022-12-18T13:18:22;4.00;4.00;3.00
65383;PMS5003;51986;52.788;41.368;2022-12-18T13:23:29;10.00;9.00;5.00
65383;PMS5003;51986;52.788;41.368;2022-12-18T13:36:55;5.00;5.00;3.00
65383;PMS5003;51986;52.788;41.368;2022-12-18T13:39:43;3.00;3.00;2.00
65383;PMS5003;51986;52.788;41.368;2022-12-18T13:44:38;13.50;11.50;9.00
65383;PMS5003;51986;52.788;41.368;2022-12-18T13:47:31;8.50;7.00;3.75
65383;PMS5003;51986;52.788;41.368;2022-12-18T13:50:09;5.00;3.50;2.25
65383;PMS5003;51986;52.788;41.368;2022-12-18T13:52:47;5.50;5.50;3.25
65383;PMS5003;51986;52.788;41.368;2022-12-18T13:55:16;6.25;5.75;3.00
65383;PMS5003;51986;52.788;41.368;2022-12-18T13:57:47;5.00;5.00;2.00
65383;PMS5003;51986;52.788;41.368;2022-12-18T14:00:24;5.50;4.25;3.00
65383;PMS5003;51986;52.788;41.368;2022-12-18T14:02:53;9.00;8.00;5.00
65383;PMS5003;51986;52.788;41.368;2022-12-18T14:05:21;12.25;11.75;8.75
65383;PMS5003;51986;52.788;41.368;2022-12-18T14:07:50;9.25;8.25;4.25
65383;PMS5003;51986;52.788;41.368;2022-12-18T14:10:18;11.00;8.00;5.00
65383;PMS5003;51986;52.788;41.368;2022-12-18T14:13:06;4.50;3.00;2.00
65383;PMS5003;51986;52.788;41.368;2022-12-18T14:20:50;3.00;3.00;1.25
65383;PMS5003;51986;52.788;41.368;2022-12-18T14:26:22;7.00;6.00;4.00
65383;PMS5003;51986;52.788;41.368;2022-12-18T14:28:49;5.00;4.00;3.00
65383;PMS5003;51986;52.788;41.368;2022-12-18T14:31:17;4.00;3.00;1.00
65383;PMS5003;51986;52.788;41.368;2022-12-18T14:33:45;8.00;7.75;5.75
65383;PMS5003;51986;52.788;41.368;2022-12-18T14:36:15;9.00;8.50;7.50
65383;PMS5003;51986;52.788;41.368;2022-12-18T14:38:47;9.00;6.50;3.50
65383;PMS5003;51986;52.788;41.368;2022-12-18T14:41:17;7.00;5.00;3.00
65383;PMS5003;51986;52.788;41.368;2022-12-18T14:43:46;4.00;3.25;2.00
65383;PMS5003;51986;52.788;41.368;2022-12-18T14:46:26;8.00;8.00;5.75
65383;PMS5003;51986;52.788;41.368;2022-12-18T14:48:56;10.00;9.00;6.00
65383;PMS5003;51986;52.788;41.368;2022-12-18T14:51:24;10.00;8.00;4.00
65383;PMS5003;51986;52.788;41.368;2022-12-18T14:54:00;8.75;6.25;3.00
65383;PMS5003;51986;52.788;41.368;2022-12-18T14:56:33;4.00;4.00;2.00
65383;PMS5003;51986;52.788;41.368;2022-12-18T14:59:03;6.75;6.25;3.00
65383;PMS5003;51986;52.788;41.368;2022-12-18T15:01:34;11.00;9.00;6.25
65383;PMS5003;51986;52.788;41.368;2022-12-18T15:04:04;8.00;6.50;5.00
65383;PMS5003;51986;52.788;41.368;2022-12-18T15:06:50;6.75;5.00;3.50
65383;PMS5003;51986;52.788;41.368;2022-12-18T15:09:38;5.00;5.00;3.00
65383;PMS5003;51986;52.788;41.368;2022-12-18T15:12:50;6.25;5.25;3.50
65383;PMS5003;51986;52.788;41.368;2022-12-18T15:15:01;11.00;9.50;7.00
65383;PMS5003;51986;52.788;41.368;2022-12-18T15:17:29;12.50;11.00;7.00
65383;PMS5003;51986;52.788;41.368;2022-12-18T15:20:00;13.00;12.00;7.00
65383;PMS5003;51986;52.788;41.368;2022-12-18T15:22:43;14.00;13.50;9.25
65383;PMS5003;51986;52.788;41.368;2022-12-18T15:25:27;13.00;12.00;6.00
65383;PMS5003;51986;52.788;41.368;2022-12-18T15:28:03;10.50;8.00;3.00
65383;PMS5003;51986;52.788;41.368;2022-12-18T15:30:57;7.00;7.00;3.00
65383;PMS5003;51986;52.788;41.368;2022-12-18T15:36:27;5.75;4.00;3.00
65383;PMS5003;51986;52.788;41.368;2022-12-18T15:38:57;7.00;7.00;5.50
65383;PMS5003;51986;52.788;41.368;2022-12-18T15:41:33;10.00;9.00;7.00
65383;PMS5003;51986;52.788;41.368;2022-12-18T15:44:02;8.75;7.50;3.75
65383;PMS5003;51986;52.788;41.368;2022-12-18T15:46:32;5.00;4.00;2.00
65383;PMS5003;51986;52.788;41.368;2022-12-18T15:48:59;9.00;7.50;5.50
65383;PMS5003;51986;52.788;41.368;2022-12-18T15:51:29;10.00;9.00;5.00
65383;PMS5003;51986;52.788;41.368;2022-12-18T15:54:02;10.50;7.00;4.50
65383;PMS5003;51986;52.788;41.368;2022-12-18T15:56:35;13.50;10.75;7.75
65383;PMS5003;51986;52.788;41.368;2022-12-18T15:59:04;11.00;10.25;4.50
65383;PMS5003;51986;52.788;41.368;2022-12-18T16:01:40;11.00;9.50;5.00
65383;PMS5003;51986;52.788;41.368;2022-12-18T16:04:10;9.00;7.50;4.00
65383;PMS5003;51986;52.788;41.368;2022-12-18T16:06:39;6.00;3.75;2.25
65383;PMS5003;51986;52.788;41.368;2022-12-18T16:09:28;3.00;2.00;1.00
65383;PMS5003;51986;52.788;41.368;2022-12-18T16:11:58;7.00;7.00;5.00
65383;PMS5003;51986;52.788;41.368;2022-12-18T16:14:27;8.00;7.25;5.00
65383;PMS5003;51986;52.788;41.368;2022-12-18T16:16:58;6.00;5.00;3.00
65383;PMS5003;51986;52.788;41.368;2022-12-18T16:19:27;5.75;5.75;2.00
65383;PMS5003;51986;52.788;41.368;2022-12-18T16:21:55;3.25;3.00;2.00
65383;PMS5003;51986;52.788;41.368;2022-12-18T16:24:24;3.00;3.00;1.00